Koeln, Germany

1:39 AM CET on February 06, 2016 (GMT +0100)
near Airport Cologne/Bonn | | Change Station
CLOSE
Current Station
Personal Weather Station
Location: Köln, NORDRHEIN-WESTFALEN
Elevation: 180 ft
Nearby Weather Stations

Elev 180 ft 50.88 °N, 7.10 °E | Updated 5 seconds ago

Mostly Cloudy
Mostly Cloudy
48.6 °F
Feels Like 49 °F
N
2.0
Wind Variable Wind from ESE
Gusts 5.0 mph

Today
High -- | Low -- °F
--% Chance of Precip.
Yesterday
High -- | Low -- °F
Precip. -- in
Pressure 30.06 in
Visibility 6.2 miles
Clouds Mostly Cloudy 2500 ft
Windchill 49 °F
Dew Point 42 °F
Humidity 78%
Rainfall 0.00 in
Snow Depth Not available.
8:00 AM 5:30 PM
Waning Crescent, 8% visible
METAR EDDK 060020Z 13008KT 9999 BKN025 09/07 Q1018 NOSIG
Pressure 30.06 in
Visibility 6.2 miles
Clouds Mostly Cloudy 2500 ft
Windchill 49 °F
Dew Point 42 °F
Humidity 78%
Rainfall 0.00 in
Snow Depth Not available.
8:00 AM 5:30 PM
Waning Crescent, 8% visible
METAR EDDK 060020Z 13008KT 9999 BKN025 09/07 Q1018 NOSIG

10-Day Weather Forecast

Almanac

Astronomy

Feb. 06, 2016 Rise Set
Actual Time
Civil Twilight
Nautical Twilight
Astronomical Twilight
Moon
Length of Visible Light
Length of Day
Tomorrow will be .
, % of the Moon is Illuminated

Today's Extremes

Country Highs Country Lows

Community

WunderPhotos

Upload Photos

1,890,899 photos uploaded!

WunderBlog® & News

Nearby

Air Quality

  Air Quality AQ Index Pollutant
Not available.

Snow Depth

Station Depth Elevation

Earthquake Activity

City Distance Mag. Time & Date
Minimum magnitude displayed is 2.5.

Coastal Water Temperatures

Place Temperature

Stations

Nearby Weather Stations

Station Location Temp. Windchill Dew Point Humidity Wind Precip. Elev Updated Type